Terminal Aerodrome Forecast
Issued by NWS

Home | Current Version | Previous Version | Text Only | Print | Product List | Glossary On
Versions: 1 2 3 4 5 6 7 8 9 10 11 12 13
000
FTUS44 KTSA 061125
TAFBVO
TAF
KBVO 061125Z 0612/0712 17006KT P6SM BKN250
     FM061500 19010G19KT P6SM SCT050 BKN250
     FM070100 18009KT P6SM BKN250 PROB30 0703/0709 4SM -TSRA
      BKN040CB
     FM070900 VRB03KT 3SM -TSRA OVC035CB=

USA.gov is the U.S. government's official web portal to all federal, state and local government web resources and services.